This is the latest recevied weather packets stored in our database for station/object N0NB. If no packets are shown the sender has not sent any weather packets the latest 10 day(s).
| Time | Temp. | Humidity | Pressure | Rain* | Wind** | Luminosity | Snow |
|---|---|---|---|---|---|---|---|
| 1777508116 | 17.22° C | 43% | 1016.7 hPa | 0 mm | - | 130 W/m² | - |
| 1777507516 | 17.78° C | 41% | 1016.6 hPa | 0 mm | - | 164 W/m² | - |
| 1777506916 | 17.22° C | 42% | 1016.8 hPa | 0 mm | - | 202 W/m² | - |
| 1777506316 | 17.22° C | 43% | 1016.8 hPa | 0 mm | - | 216 W/m² | - |
| 1777505716 | 17.78° C | 42% | 1017 hPa | 0 mm | - | 265 W/m² | - |
| 1777505116 | 17.78° C | 45% | 1016.9 hPa | 0 mm | - | 296 W/m² | - |
| 1777504516 | 17.78° C | 43% | 1016.9 hPa | 0 mm | - | 332 W/m² | - |
| 1777503916 | 18.33° C | 45% | 1017 hPa | 0 mm | - | 359 W/m² | - |
| 1777503316 | 17.78° C | 42% | 1016.9 hPa | 0 mm | - | 392 W/m² | - |
| 1777502716 | 17.22° C | 42% | 1016.8 hPa | 0 mm | - | 426 W/m² | - |
| 1777502115 | 17.22° C | 46% | 1017 hPa | 0 mm | - | 381 W/m² | - |
| 1777501516 | 16.67° C | 45% | 1016.9 hPa | 0 mm | - | 338 W/m² | - |
| 1777500916 | 17.22° C | 43% | 1017 hPa | 0 mm | - | 434 W/m² | - |
| 1777500316 | 17.78° C | 45% | 1017.1 hPa | 0 mm | - | 574 W/m² | - |
| 1777499715 | 17.22° C | 50% | 1017.2 hPa | 0 mm | - | 395 W/m² | - |
| 1777499116 | 16.67° C | 46% | 1017.2 hPa | 0 mm | - | 695 W/m² | - |
| 1777498516 | 16.67° C | 46% | 1017.4 hPa | 0 mm | - | 301 W/m² | - |
| 1777497915 | 16.67° C | 46% | 1017.6 hPa | 0 mm | - | 358 W/m² | - |
| 1777497315 | 17.22° C | 47% | 1017.7 hPa | 0 mm | - | 616 W/m² | - |
| 1777496715 | 16.67° C | 48% | 1017.8 hPa | 0 mm | - | 710 W/m² | - |
| 1777496115 | 16.67° C | 51% | 1018.1 hPa | 0 mm | - | 724 W/m² | - |
| 1777495515 | 16.11° C | 46% | 1018 hPa | 0 mm | - | 652 W/m² | - |
| 1777494917 | 16.11° C | 53% | 1018.3 hPa | 0 mm | - | 589 W/m² | - |
| 1777494317 | 16.11° C | 49% | 1018.5 hPa | 0 mm | - | 362 W/m² | - |
| 1777493717 | 16.11° C | 52% | 1018.8 hPa | 0 mm | - | 849 W/m² | - |
* Rain latest hour (hover to see other rain measurements)
** Current wind speed in m/s (hover to see current wind gust speed)